Time;durP1;ratioP1;P1;durP2;ratioP2;P2;SDS_P1;SDS_P2;PMS_P1;PMS_P2;Temp;Humidity;BMP_temperature;BMP_pressure;BME280_temperature;BME280_humidity;BME280_pressure;Samples;Min_cycle;Max_cycle;Signal;HPM_P1;HPM_P2
2022/08/29 00:00:44;;;;;;;8.63;2.75;;;;;;;22.04;62.87;100027.25;10375616;28;20445;-72
2022/08/29 00:05:45;;;;;;;6.03;2.08;;;;;;;21.28;62.60;99916.22;10374404;28;20053;-72
2022/08/29 00:10:46;;;;;;;6.97;2.55;;;;;;;21.91;63.26;100038.47;10374389;28;20418;-72
2022/08/29 00:15:47;;;;;;;11.07;2.90;;;;;;;21.78;63.48;100029.66;10374064;28;20498;-71
2022/08/29 00:20:48;;;;;;;7.13;2.95;;;;;;;21.61;63.57;100018.03;10374444;28;20052;-72
2022/08/29 00:25:49;;;;;;;10.50;2.78;;;;;;;21.61;64.04;100026.16;10372357;28;20054;-72
2022/08/29 00:30:51;;;;;;;12.35;2.90;;;;;;;21.77;64.10;100054.22;10372561;28;20427;-71
2022/08/29 00:35:52;;;;;;;7.30;2.70;;;;;;;21.38;63.96;99995.53;10373457;28;20045;-72
2022/08/29 00:40:55;;;;;;;6.95;2.75;;;;;;;21.52;64.65;100022.25;10373608;28;20034;-72
2022/08/29 00:46:16;;;;;;;11.90;2.95;;;;;;;21.31;65.76;99984.06;10373513;28;20041;-72
2022/08/29 00:51:19;;;;;;;11.98;2.90;;;;;;;21.41;65.17;100030.19;10374425;28;20088;-71
2022/08/29 00:56:20;;;;;;;10.52;3.00;;;;;;;21.15;64.79;99982.22;10455046;28;20095;-72
2022/08/29 01:01:21;;;;;;;14.30;2.97;;;;;;;21.36;65.34;100034.72;10455244;28;20460;-71
2022/08/29 01:06:25;;;;;;;7.72;3.05;;;;;;;21.27;66.25;100023.47;10455137;28;20061;-72
2022/08/29 01:16:52;;;;;;;13.55;2.83;;;;;;;21.08;66.72;100022.06;10454644;28;20040;-72
2022/08/29 01:22:06;;;;;;;14.18;3.03;;;;;;;21.03;67.65;100027.38;10454437;28;20067;-71
2022/08/29 01:27:06;;;;;;;;;;;;;;;21.11;66.12;100026.97;10454111;28;20037;-71
2022/08/29 01:32:07;;;;;;;8.95;2.85;;;;;;;20.88;65.69;100023.38;10435806;28;19913;-71
2022/08/29 01:37:12;;;;;;;11.23;3.10;;;;;;;20.43;67.14;99972.88;10458448;28;20052;-71
2022/08/29 01:42:17;;;;;;;8.38;3.05;;;;;;;20.77;67.59;100045.03;10461451;28;20571;-71
2022/08/29 01:47:20;;;;;;;7.47;3.63;;;;;;;20.62;67.96;100048.25;10461823;28;20131;-71
2022/08/29 01:52:22;;;;;;;10.20;3.22;;;;;;;20.58;68.34;100064.13;10461677;28;20037;-71
2022/08/29 01:57:23;;;;;;;15.63;3.15;;;;;;;20.22;68.95;100043.66;10472551;28;20064;-71
2022/08/29 02:02:27;;;;;;;12.13;3.42;;;;;;;20.12;70.63;100051.56;10462231;28;20044;-72
2022/08/29 02:07:28;;;;;;;9.63;3.40;;;;;;;19.54;69.30;99973.22;10454224;28;20120;-71
2022/08/29 02:12:30;;;;;;;33.30;4.18;;;;;;;20.08;69.42;100056.59;10474991;28;20120;-71
2022/08/29 02:17:31;;;;;;;14.95;3.47;;;;;;;19.94;69.36;100058.72;10502434;28;20523;-71
2022/08/29 02:22:31;;;;;;;13.90;3.88;;;;;;;19.86;69.69;100067.16;10502140;28;20040;-71
2022/08/29 02:27:32;;;;;;;16.40;3.65;;;;;;;19.84;69.97;100055.81;10502062;28;20041;-71
2022/08/29 02:32:33;;;;;;;30.90;5.13;;;;;;;19.86;69.81;100060.97;10492892;28;20047;-71
2022/08/29 02:37:34;;;;;;;41.65;6.65;;;;;;;19.82;70.23;100083.00;10460389;28;20052;-71
2022/08/29 02:42:35;;;;;;;14.43;4.07;;;;;;;19.38;70.43;100028.63;10444716;28;20048;-71
2022/08/29 02:47:36;;;;;;;18.08;4.25;;;;;;;19.66;70.76;100099.06;10486499;28;20128;-72
2022/08/29 02:52:41;;;;;;;16.77;3.88;;;;;;;19.65;72.13;100092.84;10461502;28;20048;-71
2022/08/29 02:57:42;;;;;;;37.13;4.93;;;;;;;19.36;70.70;100035.28;10441447;28;20057;-71
2022/08/29 03:02:46;;;;;;;19.45;4.20;;;;;;;19.88;70.61;100124.38;10459705;28;20127;-71
2022/08/29 03:07:47;;;;;;;18.15;4.57;;;;;;;19.95;69.79;100103.53;10459383;28;20045;-71
2022/08/29 03:12:49;;;;;;;15.73;3.65;;;;;;;19.79;69.36;100053.81;10459462;28;20049;-71
2022/08/29 03:17:50;;;;;;;27.60;4.30;;;;;;;20.42;68.65;100126.88;10458392;28;20041;-71
2022/08/29 03:22:53;;;;;;;17.38;3.50;;;;;;;20.78;68.02;100119.53;10458271;28;20045;-71
2022/08/29 03:27:53;;;;;;;15.25;3.60;;;;;;;21.39;65.74;100091.78;10458755;28;20048;-71
2022/08/29 03:32:55;;;;;;;12.35;3.38;;;;;;;22.00;64.47;100101.88;10458210;28;20511;-72
2022/08/29 03:37:57;;;;;;;46.08;7.07;;;;;;;22.96;62.29;100107.69;10457370;28;20492;-71
2022/08/29 03:42:57;;;;;;;43.17;7.35;;;;;;;23.66;59.93;100091.47;10457355;28;20041;-71
2022/08/29 03:47:58;;;;;;;19.98;5.65;;;;;;;24.28;57.66;100092.66;10457291;28;20128;-72
2022/08/29 03:52:59;;;;;;;39.03;6.30;;;;;;;24.78;56.01;100064.88;10457077;28;20036;-71
2022/08/29 03:58:00;;;;;;;28.02;4.38;;;;;;;24.90;55.06;100010.28;10457619;28;20057;-71
2022/08/29 04:03:01;;;;;;;40.42;5.35;;;;;;;25.68;53.48;100036.34;10457689;28;20063;-71
2022/08/29 04:08:02;;;;;;;24.13;4.43;;;;;;;26.73;52.44;100113.59;10439921;28;20044;-73
2022/08/29 04:13:04;;;;;;;15.30;3.90;;;;;;;27.26;50.94;100109.19;10466644;28;20073;-72
2022/08/29 04:18:07;;;;;;;12.32;3.75;;;;;;;27.65;49.71;100118.44;10456960;28;20094;-72
2022/08/29 04:23:10;;;;;;;14.82;3.05;;;;;;;28.17;49.10;100125.00;10467710;28;20055;-72
2022/08/29 04:28:13;;;;;;;13.55;3.67;;;;;;;28.03;48.31;100015.69;10482217;28;20040;-72
2022/08/29 04:33:14;;;;;;;21.50;3.80;;;;;;;28.75;48.94;100099.44;10494613;28;20062;-72
2022/08/29 04:38:15;;;;;;;7.78;2.30;;;;;;;28.62;48.13;100055.31;10492947;28;20515;-72
2022/08/29 04:43:16;;;;;;;13.52;2.85;;;;;;;28.54;48.67;100099.72;10496205;28;20123;-71
2022/08/29 04:48:17;;;;;;;20.38;3.17;;;;;;;28.22;48.85;100079.34;10489192;28;20036;-69
2022/08/29 04:53:18;;;;;;;9.15;2.67;;;;;;;27.72;49.66;100026.91;10476470;28;20072;-71
2022/08/29 04:58:19;;;;;;;25.25;3.38;;;;;;;27.30;50.59;100046.72;10455185;28;20084;-76
2022/08/29 05:03:20;;;;;;;12.38;3.30;;;;;;;27.06;51.52;100079.31;10454645;28;20041;-73
2022/08/29 05:08:22;;;;;;;10.95;2.90;;;;;;;26.67;52.08;100066.50;10454362;28;20045;-72
2022/08/29 05:13:22;;;;;;;6.95;2.30;;;;;;;26.87;52.37;100090.09;10454019;28;20068;-72
2022/08/29 05:18:23;;;;;;;13.70;2.90;;;;;;;26.65;52.46;100052.34;10454051;28;20044;-72
2022/08/29 05:23:24;;;;;;;12.05;2.47;;;;;;;26.94;52.53;100117.03;10454556;28;20064;-72
2022/08/29 05:28:26;;;;;;;8.23;2.72;;;;;;;27.11;52.48;100136.53;10454260;28;20041;-71
2022/08/29 05:33:27;;;;;;;6.53;2.67;;;;;;;27.01;51.92;100101.16;10454056;28;20043;-71
2022/08/29 05:38:28;;;;;;;11.20;2.58;;;;;;;27.48;52.18;100129.75;10453436;28;20183;-71
2022/08/29 05:43:30;;;;;;;9.60;2.63;;;;;;;26.90;51.43;100010.47;10453458;28;20040;-71
2022/08/29 05:48:33;;;;;;;11.32;2.83;;;;;;;27.29;51.91;100151.44;10453177;28;20037;-71
2022/08/29 05:53:33;;;;;;;5.43;2.35;;;;;;;26.65;52.64;100106.81;10453878;28;20037;-71
2022/08/29 05:58:34;;;;;;;13.18;2.70;;;;;;;26.74;52.66;100154.19;10452265;28;20505;-70
2022/08/29 06:03:35;;;;;;;18.52;4.13;;;;;;;26.37;52.64;100160.84;10453661;28;20049;-71
2022/08/29 06:08:36;;;;;;;14.93;3.63;;;;;;;26.01;53.18;100143.78;10454197;28;20397;-72
2022/08/29 06:13:37;;;;;;;29.00;3.70;;;;;;;26.12;53.16;100183.53;10453043;28;20043;-71
2022/08/29 06:18:38;;;;;;;19.67;4.25;;;;;;;26.36;52.30;100166.59;10452715;28;20095;-70
2022/08/29 06:23:40;;;;;;;8.07;2.92;;;;;;;26.35;51.37;100114.00;10458207;28;20037;-71
2022/08/29 06:28:46;;;;;;;15.60;3.50;;;;;;;26.61;50.75;100073.88;10461065;28;20041;-72
2022/08/29 06:33:52;;;;;;;10.43;3.10;;;;;;;26.63;51.73;100125.38;10461549;28;20033;-71
2022/08/29 06:39:03;;;;;;;11.57;3.47;;;;;;;26.79;51.90;100154.16;10460733;28;20048;-71
2022/08/29 06:44:04;;;;;;;18.65;2.90;;;;;;;27.07;50.97;100155.38;10459852;28;20043;-71
2022/08/29 06:49:07;;;;;;;11.13;2.92;;;;;;;27.09;50.73;100130.56;10459590;28;20048;-71
2022/08/29 06:54:10;;;;;;;9.52;2.75;;;;;;;27.81;49.94;100144.50;10441982;28;20416;-70
2022/08/29 06:59:11;;;;;;;12.27;3.05;;;;;;;28.22;48.79;100147.63;10457929;28;20068;-71
2022/08/29 07:04:13;;;;;;;30.95;3.97;;;;;;;27.94;48.58;100078.31;10459374;28;20052;-72
2022/08/29 07:09:14;;;;;;;19.17;3.30;;;;;;;28.43;47.67;100079.09;10458929;28;20037;-72
2022/08/29 07:14:15;;;;;;;14.35;3.58;;;;;;;28.03;47.62;100004.75;10457569;28;20072;-72
2022/08/29 07:19:15;;;;;;;11.23;3.00;;;;;;;28.89;46.92;100131.22;10459117;28;20068;-72
2022/08/29 07:24:16;;;;;;;10.27;3.50;;;;;;;29.06;47.04;100108.84;10459503;28;20041;-72
2022/08/29 07:29:20;;;;;;;19.08;3.85;;;;;;;29.25;46.38;100117.03;10459097;28;20041;-72
2022/08/29 07:34:21;;;;;;;11.00;3.00;;;;;;;29.64;46.14;100101.38;10457541;28;20171;-71
2022/08/29 07:39:22;;;;;;;12.85;2.90;;;;;;;29.46;45.54;100056.50;10458126;28;20440;-72
2022/08/29 07:44:24;;;;;;;8.48;3.08;;;;;;;29.84;44.80;100114.69;10458339;28;20049;-71
2022/08/29 07:49:29;;;;;;;21.23;3.30;;;;;;;30.09;45.31;100120.78;10457657;28;20080;-72
2022/08/29 07:54:30;;;;;;;17.80;3.35;;;;;;;30.16;44.44;100102.03;10457771;28;20029;-72
2022/08/29 07:59:31;;;;;;;42.70;5.22;;;;;;;30.62;44.52;100125.78;10457823;28;20498;-72
2022/08/29 08:04:32;;;;;;;28.65;4.13;;;;;;;30.91;43.37;100112.53;10456827;28;20073;-73
2022/08/29 08:09:32;;;;;;;15.73;3.10;;;;;;;30.84;43.09;100072.91;10439598;28;20040;-72
2022/08/29 08:14:33;;;;;;;13.25;3.35;;;;;;;30.88;43.36;100112.34;10457540;28;20128;-72
2022/08/29 08:19:36;;;;;;;16.13;3.30;;;;;;;30.69;41.75;100039.25;10456131;28;20041;-72
2022/08/29 08:24:36;;;;;;;21.77;4.10;;;;;;;30.75;42.25;100036.38;10456571;28;20032;-72
2022/08/29 08:29:37;;;;;;;16.02;3.47;;;;;;;31.58;41.73;100099.94;10456599;28;20048;-72
2022/08/29 08:34:38;;;;;;;18.00;2.85;;;;;;;31.59;40.52;100104.31;10454274;28;20124;-72
2022/08/29 08:39:40;;;;;;;28.63;4.07;;;;;;;31.46;41.10;100081.31;10455234;28;20411;-72
2022/08/29 08:44:56;;;;;;;20.63;4.15;;;;;;;31.80;40.56;100093.59;10455660;28;20033;-72
2022/08/29 08:50:05;;;;;;;9.95;2.97;;;;;;;31.82;39.78;100048.19;10454437;28;20496;-72
2022/08/29 08:55:24;;;;;;;21.42;4.15;;;;;;;31.68;39.67;99991.75;10454321;28;20057;-72
2022/08/29 09:00:29;;;;;;;11.63;3.30;;;;;;;31.96;39.62;100042.63;10437009;28;20040;-72
2022/08/29 09:06:19;;;;;;;11.43;2.90;;;;;;;32.26;38.72;100032.69;10453343;28;20076;-70
2022/08/29 09:11:38;;;;;;;13.20;3.20;;;;;;;32.45;39.32;100056.34;10443502;28;20147;-73
2022/08/29 09:16:47;;;;;;;11.95;3.20;;;;;;;32.50;38.52;100035.00;10454600;28;20052;-72
2022/08/29 09:21:52;;;;;;;16.13;3.22;;;;;;;32.67;38.03;100025.97;10453993;28;20051;-72
2022/08/29 09:26:55;;;;;;;17.65;3.15;;;;;;;32.83;38.35;99996.00;10454280;28;20074;-72
2022/08/29 09:32:12;;;;;;;19.52;3.15;;;;;;;33.11;37.40;100023.97;10454221;28;20036;-72
2022/08/29 09:37:30;;;;;;;11.20;3.05;;;;;;;33.08;37.47;99990.81;10454180;28;20040;-72
2022/08/29 09:42:55;;;;;;;16.60;3.10;;;;;;;33.11;37.01;100012.16;10454597;28;20080;-72
2022/08/29 09:48:16;;;;;;;14.25;3.15;;;;;;;33.13;37.16;100015.41;10452721;28;20123;-73
2022/08/29 09:53:22;;;;;;;20.00;3.67;;;;;;;32.95;37.78;100006.34;10453904;28;20091;-72
2022/08/29 09:58:23;;;;;;;10.07;3.33;;;;;;;33.38;37.42;100006.25;10459180;28;20061;-72
2022/08/29 10:03:27;;;;;;;13.80;3.10;;;;;;;33.61;36.80;100012.38;10462144;28;20052;-72
2022/08/29 10:08:35;;;;;;;14.82;3.08;;;;;;;33.62;36.38;100008.47;10462219;28;20083;-72
2022/08/29 10:13:59;;;;;;;14.27;3.67;;;;;;;33.46;35.98;99960.56;10461476;28;20385;-72
2022/08/29 10:19:08;;;;;;;168.70;12.38;;;;;;;33.79;36.30;100006.78;10466179;28;20109;-69
2022/08/29 10:24:29;;;;;;;19.30;3.47;;;;;;;33.81;36.53;99994.28;10475158;28;20044;-68
2022/08/29 10:29:49;;;;;;;15.15;3.35;;;;;;;33.79;36.78;99982.78;10460787;28;20051;-70
2022/08/29 10:35:23;;;;;;;6.78;2.92;;;;;;;34.03;35.73;99984.94;10460447;28;20056;-68
2022/08/29 10:40:31;;;;;;;7.05;2.53;;;;;;;33.93;35.08;99979.00;10459286;28;20041;-70
2022/08/29 10:45:50;;;;;;;15.13;3.13;;;;;;;34.14;35.06;99979.06;10442032;28;20083;-71
2022/08/29 10:51:16;;;;;;;12.30;3.15;;;;;;;33.90;34.91;99941.09;10459483;28;20052;-72
2022/08/29 10:56:22;;;;;;;9.57;2.80;;;;;;;33.99;34.79;99961.94;10459362;28;20134;-71
2022/08/29 11:01:28;;;;;;;13.40;3.20;;;;;;;34.04;34.84;99956.25;10459072;28;20049;-72
2022/08/29 11:06:41;;;;;;;11.07;2.97;;;;;;;34.26;34.12;99960.63;10458914;28;20045;-73
2022/08/29 11:12:00;;;;;;;12.18;2.67;;;;;;;34.36;34.52;99947.56;10459120;28;20121;-72
2022/08/29 11:17:04;;;;;;;14.45;3.33;;;;;;;34.23;33.97;99952.22;10459139;28;20055;-71
2022/08/29 11:22:25;;;;;;;12.63;3.10;;;;;;;34.41;34.30;99956.44;10459365;28;20041;-70
2022/08/29 11:28:04;;;;;;;20.03;3.07;;;;;;;34.49;33.41;99958.34;10458130;28;20045;-71
2022/08/29 11:33:29;;;;;;;15.68;3.45;;;;;;;34.52;33.32;99952.13;10458445;28;20505;-72
2022/08/29 11:38:48;;;;;;;11.73;4.18;;;;;;;34.51;32.88;99953.25;10469239;28;20045;-72
2022/08/29 11:43:53;;;;;;;7.13;3.10;;;;;;;34.33;32.95;99934.47;10458071;28;20048;-70
2022/08/29 11:49:23;;;;;;;11.07;3.10;;;;;;;34.64;32.45;99940.38;10457725;28;20214;-71
2022/08/29 11:54:23;;;;;;;13.68;3.15;;;;;;;34.44;32.90;99941.19;10457578;28;20396;-72
2022/08/29 11:59:53;;;;;;;14.07;2.85;;;;;;;34.65;32.29;99949.47;10457561;28;20064;-71
2022/08/29 12:04:56;;;;;;;29.27;3.90;;;;;;;34.46;32.50;99900.25;10457393;28;20052;-72
2022/08/29 12:09:59;;;;;;;7.55;3.05;;;;;;;34.49;31.93;99925.25;10457617;28;20130;-70
2022/08/29 12:15:00;;;;;;;17.73;3.85;;;;;;;34.47;32.33;99916.47;10456932;28;20098;-72
2022/08/29 12:20:05;;;;;;;19.70;3.67;;;;;;;34.58;32.26;99924.34;10485807;28;20044;-71
2022/08/29 12:25:50;;;;;;;13.88;3.45;;;;;;;34.82;32.12;99932.69;10539162;28;20043;-71
2022/08/29 12:30:57;;;;;;;8.60;2.88;;;;;;;34.73;32.19;99945.78;10506049;28;20096;-71
2022/08/29 12:36:36;;;;;;;42.58;5.28;;;;;;;34.93;32.64;99928.38;10464984;28;20077;-73
2022/08/29 12:41:50;;;;;;;21.00;3.90;;;;;;;34.87;32.49;99885.59;10497060;28;20044;-72
2022/08/29 12:46:54;;;;;;;16.92;3.40;;;;;;;34.63;30.89;99861.50;10489929;28;20040;-69
2022/08/29 12:52:02;;;;;;;26.20;3.97;;;;;;;34.95;31.53;99914.25;10492768;28;20119;-68
2022/08/29 12:57:07;;;;;;;12.23;3.60;;;;;;;34.90;30.68;99909.72;10469105;28;20068;-69
2022/08/29 13:02:25;;;;;;;16.80;3.17;;;;;;;34.64;30.08;99843.81;10468332;28;20044;-69
2022/08/29 13:07:30;;;;;;;19.45;3.58;;;;;;;34.75;30.57;99871.78;10452676;28;20059;-71
2022/08/29 13:12:35;;;;;;;12.27;3.03;;;;;;;34.84;30.55;99896.50;10464102;28;20048;-71
2022/08/29 13:17:39;;;;;;;16.67;3.47;;;;;;;34.79;30.44;99880.16;10482449;28;20044;-70
2022/08/29 13:22:40;;;;;;;21.33;4.05;;;;;;;34.38;30.50;99819.25;10495952;28;20084;-69
2022/08/29 13:27:41;;;;;;;22.50;3.47;;;;;;;34.72;30.87;99877.97;10466086;28;20060;-69
2022/08/29 13:32:48;;;;;;;22.70;3.60;;;;;;;34.35;30.45;99833.72;10453667;28;20033;-69
2022/08/29 13:38:28;;;;;;;23.00;4.60;;;;;;;34.44;30.19;99889.59;10473991;28;20048;-68
2022/08/29 13:43:39;;;;;;;21.70;3.85;;;;;;;34.19;31.29;99872.13;10359031;28;20038;-71
2022/08/29 13:48:41;;;;;;;30.17;3.45;;;;;;;34.11;31.46;99866.72;10452538;28;20587;-68
2022/08/29 13:53:43;;;;;;;31.05;4.45;;;;;;;34.19;31.65;99898.88;10475090;28;20522;-67
2022/08/29 13:58:44;;;;;;;8.82;2.85;;;;;;;33.69;31.46;99833.63;10478717;28;20056;-69
2022/08/29 14:03:45;;;;;;;14.00;3.35;;;;;;;33.96;31.92;99896.47;10491904;28;20036;-69
2022/08/29 14:08:47;;;;;;;11.00;2.97;;;;;;;33.96;31.66;99906.69;10469755;28;20049;-69
2022/08/29 14:13:48;;;;;;;15.07;3.83;;;;;;;33.77;31.77;99894.16;10487929;28;20033;-69
2022/08/29 14:18:49;;;;;;;13.15;3.20;;;;;;;33.72;31.68;99907.34;10464377;28;20508;-71
2022/08/29 14:23:50;;;;;;;12.27;3.22;;;;;;;32.93;31.80;99800.31;10485576;28;20131;-70
2022/08/29 14:28:51;;;;;;;18.35;3.40;;;;;;;33.61;31.90;99918.72;10489981;28;20052;-69
2022/08/29 14:33:52;;;;;;;14.25;2.92;;;;;;;33.54;31.84;99923.97;10474305;28;20599;-70
2022/08/29 14:38:53;;;;;;;18.25;3.60;;;;;;;33.44;31.59;99932.53;10457181;28;20045;-69
2022/08/29 14:43:54;;;;;;;16.67;3.45;;;;;;;33.15;31.97;99919.56;10475231;28;20565;-69
2022/08/29 14:48:55;;;;;;;12.88;3.20;;;;;;;32.92;31.59;99929.97;10480236;28;20043;-69
2022/08/29 14:53:56;;;;;;;13.05;3.10;;;;;;;32.66;31.69;99928.06;10464522;28;20091;-70
2022/08/29 14:58:57;;;;;;;19.25;3.33;;;;;;;32.40;32.02;99910.75;10442042;28;20057;-69
2022/08/29 15:03:58;;;;;;;13.73;2.92;;;;;;;31.95;32.57;99905.59;10459608;28;20045;-68
2022/08/29 15:08:58;;;;;;;17.70;3.65;;;;;;;31.90;33.12;99938.72;10458847;28;20193;-69
2022/08/29 15:14:00;;;;;;;24.80;3.20;;;;;;;31.77;32.65;99938.50;10458633;28;20068;-69
2022/08/29 15:19:04;;;;;;;15.15;3.20;;;;;;;31.40;33.00;99928.06;10459451;28;20082;-70
2022/08/29 15:24:05;;;;;;;15.13;3.30;;;;;;;31.31;33.00;99933.47;10463408;28;20045;-69
2022/08/29 15:29:07;;;;;;;21.65;2.97;;;;;;;31.34;33.16;99966.59;10500012;28;20067;-67
2022/08/29 15:34:08;;;;;;;11.23;3.15;;;;;;;31.24;32.95;99988.81;10499331;28;20047;-70
2022/08/29 15:39:09;;;;;;;24.17;4.05;;;;;;;30.35;33.24;99872.56;10498523;28;20051;-69
2022/08/29 15:44:10;;;;;;;75.65;7.93;;;;;;;30.99;34.08;100016.88;10482302;28;20487;-68
2022/08/29 15:49:11;;;;;;;103.53;8.52;;;;;;;30.83;35.01;100021.94;10499292;28;20045;-70
2022/08/29 15:54:13;;;;;;;43.83;6.50;;;;;;;30.31;35.50;99978.44;10498856;28;20041;-67
2022/08/29 15:59:15;;;;;;;44.70;6.43;;;;;;;30.42;35.76;100033.81;10498246;28;20064;-69
2022/08/29 16:04:18;;;;;;;58.58;6.63;;;;;;;30.23;36.38;100048.47;10499246;28;20139;-69
2022/08/29 16:09:19;;;;;;;29.75;5.57;;;;;;;30.07;36.49;100044.41;10497834;28;20491;-71
2022/08/29 16:14:21;;;;;;;30.63;5.55;;;;;;;29.79;36.72;100038.09;10497845;28;20075;-70
2022/08/29 16:19:22;;;;;;;31.67;5.63;;;;;;;29.78;37.22;100067.41;10497932;28;20040;-68
2022/08/29 16:24:24;;;;;;;41.30;6.18;;;;;;;29.24;37.55;100016.94;10497302;28;20043;-71
2022/08/29 16:29:26;;;;;;;30.67;4.90;;;;;;;29.63;37.40;100100.56;10498712;28;20040;-70
2022/08/29 16:34:28;;;;;;;34.47;5.30;;;;;;;29.54;37.75;100116.81;10479137;28;20119;-70
2022/08/29 16:39:29;;;;;;;31.15;5.88;;;;;;;29.04;37.93;100066.50;10478760;28;20071;-70
2022/08/29 16:44:30;;;;;;;26.45;5.38;;;;;;;29.36;38.17;100134.09;10496610;28;20051;-68
2022/08/29 16:49:32;;;;;;;33.75;5.78;;;;;;;29.27;38.60;100127.69;10496746;28;20124;-70
2022/08/29 16:54:33;;;;;;;30.35;6.07;;;;;;;29.04;39.14;100107.50;10478858;28;20444;-69
2022/08/29 16:59:34;;;;;;;30.48;5.47;;;;;;;28.70;39.76;100083.94;10495852;28;20060;-69
2022/08/29 17:04:36;;;;;;;31.20;5.90;;;;;;;28.91;40.29;100141.88;10495787;28;20416;-69
2022/08/29 17:19:38;;;;;;;21.95;4.95;;;;;;;28.64;42.24;100139.78;10496536;28;20194;-69
2022/08/29 17:24:39;;;;;;;21.52;5.20;;;;;;;28.52;42.75;100137.47;10478063;28;20036;-70
2022/08/29 17:29:46;;;;;;;31.42;5.90;;;;;;;28.26;43.28;100117.00;10495578;28;20051;-70
2022/08/29 17:34:46;;;;;;;25.80;4.95;;;;;;;28.29;44.11;100141.00;10495586;28;20032;-68
2022/08/29 17:39:47;;;;;;;24.00;4.88;;;;;;;28.20;44.47;100127.97;10496102;28;20479;-68
2022/08/29 17:44:48;;;;;;;23.27;4.80;;;;;;;27.95;45.28;100109.16;10495133;28;20044;-70
2022/08/29 17:49:49;;;;;;;30.33;5.45;;;;;;;27.96;45.60;100138.88;10495658;28;20047;-69
2022/08/29 17:54:50;;;;;;;18.90;4.72;;;;;;;27.54;46.30;100082.22;10496025;28;20052;-71
2022/08/29 17:59:51;;;;;;;30.65;5.75;;;;;;;27.74;46.52;100131.16;10495354;28;20169;-69
2022/08/29 18:04:53;;;;;;;27.23;4.93;;;;;;;27.68;46.68;100120.56;10477946;28;20063;-70
2022/08/29 18:09:55;;;;;;;18.52;4.47;;;;;;;27.59;46.94;100123.09;10494644;28;20485;-69
2022/08/29 18:32:02;;;;;;;15.55;4.60;;;;;;;27.49;48.36;100098.63;10283524;28;20409;-67
2022/08/29 18:37:03;;;;;;;15.93;4.78;;;;;;;27.12;48.52;100044.66;10283751;28;20051;-68
2022/08/29 18:42:04;;;;;;;30.85;4.15;;;;;;;27.16;48.84;100083.91;10282998;28;20039;-68
2022/08/29 18:47:05;;;;;;;28.73;5.13;;;;;;;26.96;49.03;100065.78;10280357;28;20043;-71
2022/08/29 18:52:06;;;;;;;18.30;5.05;;;;;;;26.85;49.72;100084.91;10284037;28;20053;-72
2022/08/29 18:57:09;;;;;;;25.08;5.13;;;;;;;26.67;50.60;100087.47;10279403;28;20158;-71
2022/08/29 19:02:11;;;;;;;23.60;7.53;;;;;;;26.50;51.11;100066.03;10281853;28;20046;-72
2022/08/29 19:07:14;;;;;;;21.40;5.03;;;;;;;26.06;51.55;100040.34;10283410;28;20522;-72
2022/08/29 19:12:15;;;;;;;16.93;4.83;;;;;;;26.00;52.17;100073.31;10282601;28;20102;-72
2022/08/29 19:17:16;;;;;;;16.05;5.00;;;;;;;25.69;52.46;100076.88;10300078;28;20047;-72
2022/08/29 19:22:17;;;;;;;27.42;5.97;;;;;;;26.03;52.63;100148.97;10284392;28;20123;-72
2022/08/29 19:27:18;;;;;;;21.40;4.88;;;;;;;25.69;53.42;100139.44;10286122;28;20058;-72
2022/08/29 19:32:19;;;;;;;19.27;5.60;;;;;;;25.60;53.20;100118.50;10300900;28;20134;-72
2022/08/29 19:37:20;;;;;;;19.67;4.70;;;;;;;25.90;54.27;100188.44;10297174;28;20130;-72
2022/08/29 19:42:21;;;;;;;16.15;4.90;;;;;;;25.84;54.04;100192.25;10296523;28;20517;-72
2022/08/29 19:47:22;;;;;;;16.60;4.82;;;;;;;25.83;54.26;100212.41;10296832;28;20043;-72
2022/08/29 19:52:23;;;;;;;14.30;4.53;;;;;;;25.92;53.51;100222.47;10294914;28;20121;-72
2022/08/29 19:57:24;;;;;;;13.77;4.55;;;;;;;25.94;53.50;100214.03;10296643;28;20129;-72
2022/08/29 20:02:25;;;;;;;14.35;4.93;;;;;;;26.05;53.12;100212.09;10295984;28;20038;-72
2022/08/29 20:07:27;;;;;;;11.20;4.20;;;;;;;26.02;52.85;100205.28;10295834;28;20406;-72
2022/08/29 20:12:28;;;;;;;37.08;6.30;;;;;;;25.63;53.89;100156.03;10295511;28;20529;-72
2022/08/29 20:17:29;;;;;;;20.85;4.88;;;;;;;25.74;53.90;100190.34;10295619;28;20039;-72
2022/08/29 20:22:30;;;;;;;16.05;4.63;;;;;;;25.66;53.49;100155.50;10294738;28;20050;-72
2022/08/29 20:27:31;;;;;;;24.95;5.40;;;;;;;25.94;52.99;100186.81;10294434;28;20059;-72
2022/08/29 20:32:32;;;;;;;12.98;4.75;;;;;;;25.98;52.77;100195.25;10294525;28;20054;-73
2022/08/29 20:37:33;;;;;;;12.13;4.47;;;;;;;25.47;52.95;100117.97;10295175;28;20042;-73
2022/08/29 20:42:33;;;;;;;20.75;4.78;;;;;;;25.93;52.45;100199.59;10293731;28;20035;-73
2022/08/29 20:47:34;;;;;;;11.35;4.30;;;;;;;25.86;52.49;100192.81;10293944;28;20137;-73
2022/08/29 20:52:36;;;;;;;9.90;4.43;;;;;;;25.82;52.54;100187.09;10293966;28;20039;-73
2022/08/29 20:57:39;;;;;;;18.77;4.78;;;;;;;25.42;52.60;100117.97;10293651;28;20414;-72
2022/08/29 21:08:00;;;;;;;20.50;4.47;;;;;;;25.67;52.40;100178.91;10293603;28;20049;-73
2022/08/29 21:13:01;;;;;;;20.20;4.25;;;;;;;25.74;52.52;100182.16;10292851;28;20093;-73
2022/08/29 21:18:03;;;;;;;18.23;4.47;;;;;;;25.73;52.58;100186.81;10292675;28;20053;-72
2022/08/29 21:23:05;;;;;;;14.55;3.53;;;;;;;25.72;51.90;100178.91;10292751;28;20502;-72
2022/08/29 21:28:07;;;;;;;7.78;3.65;;;;;;;25.70;52.02;100168.31;10292987;28;20058;-72
2022/08/29 21:33:08;;;;;;;11.23;3.63;;;;;;;25.66;51.82;100160.94;10293126;28;20105;-73
2022/08/29 21:38:10;;;;;;;14.43;3.50;;;;;;;25.67;51.79;100162.59;10291976;28;20395;-73
2022/08/29 21:43:10;;;;;;;8.73;3.55;;;;;;;25.74;51.50;100169.38;10292020;28;20046;-73
2022/08/29 21:48:11;;;;;;;6.75;2.92;;;;;;;24.79;51.79;100031.19;10292198;28;20045;-73
2022/08/29 21:53:13;;;;;;;7.88;3.40;;;;;;;25.60;51.84;100171.00;10292708;28;20121;-73
2022/08/29 21:58:14;;;;;;;8.65;3.40;;;;;;;25.62;51.68;100182.44;10291949;28;20105;-73
2022/08/29 22:03:15;;;;;;;9.57;3.38;;;;;;;25.40;51.96;100152.78;10291525;28;20125;-73
2022/08/29 22:08:16;;;;;;;8.80;2.85;;;;;;;25.30;52.39;100143.81;10291386;28;20133;-73
2022/08/29 22:13:17;;;;;;;5.40;2.92;;;;;;;25.20;52.19;100131.03;10291903;28;20185;-73
2022/08/29 22:18:18;;;;;;;5.63;3.08;;;;;;;25.36;52.41;100167.19;10291296;28;20488;-73
2022/08/29 22:23:19;;;;;;;9.85;3.10;;;;;;;25.30;52.60;100157.41;10291550;28;20039;-73
2022/08/29 22:28:20;;;;;;;5.07;2.53;;;;;;;25.28;52.53;100176.72;10291163;28;20051;-73
2022/08/29 22:33:21;;;;;;;8.27;3.10;;;;;;;25.13;53.62;100172.06;10291353;28;20101;-73
2022/08/29 22:38:22;;;;;;;9.43;3.70;;;;;;;24.98;54.29;100180.97;10291230;28;20050;-73
2022/08/29 22:43:23;;;;;;;9.60;3.40;;;;;;;24.67;55.24;100176.50;10291087;28;20047;-73
2022/08/29 22:48:24;;;;;;;58.70;6.95;;;;;;;23.89;55.77;100057.75;10290569;28;20042;-73
2022/08/29 22:53:25;;;;;;;8.38;3.50;;;;;;;24.59;55.86;100202.28;10290807;28;20130;-73
2022/08/29 22:58:26;;;;;;;20.38;3.70;;;;;;;24.40;56.35;100177.41;10291556;28;20050;-73
2022/08/29 23:03:27;;;;;;;15.20;4.30;;;;;;;24.32;56.85;100199.63;10289365;28;20538;-73
2022/08/29 23:08:28;;;;;;;12.32;3.50;;;;;;;24.25;56.85;100194.44;10297430;28;20051;-73
2022/08/29 23:13:29;;;;;;;13.55;3.78;;;;;;;24.10;57.33;100203.28;10297985;28;20129;-73
2022/08/29 23:18:29;;;;;;;12.90;3.75;;;;;;;24.00;58.06;100195.09;10297753;28;20051;-73
2022/08/29 23:23:30;;;;;;;25.10;3.88;;;;;;;23.84;58.27;100193.34;10297224;28;20042;-73
2022/08/29 23:28:32;;;;;;;8.88;3.33;;;;;;;23.75;58.47;100198.41;10297146;28;20557;-73
2022/08/29 23:33:33;;;;;;;21.40;4.03;;;;;;;23.62;58.96;100194.22;10296836;28;20141;-73
2022/08/29 23:38:35;;;;;;;14.60;3.80;;;;;;;23.46;59.52;100195.16;10297134;28;20133;-73
2022/08/29 23:43:36;;;;;;;12.23;3.17;;;;;;;23.31;59.92;100187.69;10296065;28;20043;-73